sensor_id;sensor_type;location;lat;lon;timestamp;pressure;altitude;pressure_sealevel;temperature;humidity
51460;BME280;37534;39.772;2.718;2022-11-25T00:01:17;101425.78;;;15.13;100.00
51460;BME280;37534;39.772;2.718;2022-11-25T00:03:44;101420.25;;;14.97;100.00
51460;BME280;37534;39.772;2.718;2022-11-25T00:06:21;101414.50;;;15.14;100.00
51460;BME280;37534;39.772;2.718;2022-11-25T00:08:50;101410.69;;;14.97;100.00
51460;BME280;37534;39.772;2.718;2022-11-25T00:11:17;101408.59;;;15.09;100.00
51460;BME280;37534;39.772;2.718;2022-11-25T00:13:44;101414.44;;;15.15;100.00
51460;BME280;37534;39.772;2.718;2022-11-25T00:16:12;101420.94;;;15.02;100.00
51460;BME280;37534;39.772;2.718;2022-11-25T00:18:39;101412.41;;;14.98;100.00
51460;BME280;37534;39.772;2.718;2022-11-25T00:21:06;101401.25;;;14.95;100.00
51460;BME280;37534;39.772;2.718;2022-11-25T00:23:33;101407.50;;;14.89;100.00
51460;BME280;37534;39.772;2.718;2022-11-25T00:26:10;101404.47;;;14.76;100.00
51460;BME280;37534;39.772;2.718;2022-11-25T00:28:37;101392.69;;;14.66;100.00
51460;BME280;37534;39.772;2.718;2022-11-25T00:31:04;101395.00;;;14.74;100.00
51460;BME280;37534;39.772;2.718;2022-11-25T00:33:30;101405.34;;;14.75;100.00
51460;BME280;37534;39.772;2.718;2022-11-25T00:35:55;101401.78;;;14.78;100.00
51460;BME280;37534;39.772;2.718;2022-11-25T00:38:24;101397.91;;;14.91;100.00
51460;BME280;37534;39.772;2.718;2022-11-25T00:40:51;101402.16;;;14.67;100.00
51460;BME280;37534;39.772;2.718;2022-11-25T00:43:37;101392.19;;;14.53;100.00
51460;BME280;37534;39.772;2.718;2022-11-25T00:46:21;101389.69;;;14.50;100.00
51460;BME280;37534;39.772;2.718;2022-11-25T00:48:46;101396.38;;;14.57;100.00
51460;BME280;37534;39.772;2.718;2022-11-25T00:51:12;101403.66;;;14.74;100.00
51460;BME280;37534;39.772;2.718;2022-11-25T00:53:37;101413.59;;;14.61;100.00
51460;BME280;37534;39.772;2.718;2022-11-25T00:56:03;101404.13;;;14.60;100.00
51460;BME280;37534;39.772;2.718;2022-11-25T00:58:38;101410.38;;;14.53;100.00
51460;BME280;37534;39.772;2.718;2022-11-25T01:01:04;101399.91;;;14.55;100.00
51460;BME280;37534;39.772;2.718;2022-11-25T01:03:30;101410.28;;;14.55;100.00
51460;BME280;37534;39.772;2.718;2022-11-25T01:06:22;101406.84;;;14.82;100.00
51460;BME280;37534;39.772;2.718;2022-11-25T01:08:48;101411.31;;;14.79;100.00
51460;BME280;37534;39.772;2.718;2022-11-25T01:11:16;101417.59;;;14.98;100.00
51460;BME280;37534;39.772;2.718;2022-11-25T01:13:42;101424.59;;;14.96;100.00
51460;BME280;37534;39.772;2.718;2022-11-25T01:16:13;101430.41;;;15.30;100.00
51460;BME280;37534;39.772;2.718;2022-11-25T01:18:40;101424.72;;;15.18;100.00
51460;BME280;37534;39.772;2.718;2022-11-25T01:21:15;101419.59;;;15.42;100.00
51460;BME280;37534;39.772;2.718;2022-11-25T01:23:42;101430.56;;;15.50;100.00
51460;BME280;37534;39.772;2.718;2022-11-25T01:26:10;101421.06;;;15.49;100.00
51460;BME280;37534;39.772;2.718;2022-11-25T01:28:37;101428.25;;;15.66;100.00
51460;BME280;37534;39.772;2.718;2022-11-25T01:31:17;101429.97;;;15.67;100.00
51460;BME280;37534;39.772;2.718;2022-11-25T01:33:45;101427.06;;;15.76;100.00
51460;BME280;37534;39.772;2.718;2022-11-25T01:36:13;101423.91;;;15.67;100.00
51460;BME280;37534;39.772;2.718;2022-11-25T01:38:39;101433.66;;;15.62;100.00
51460;BME280;37534;39.772;2.718;2022-11-25T01:41:07;101432.63;;;15.66;100.00
51460;BME280;37534;39.772;2.718;2022-11-25T01:43:34;101426.59;;;15.65;100.00
51460;BME280;37534;39.772;2.718;2022-11-25T01:49:01;101431.28;;;15.54;100.00
51460;BME280;37534;39.772;2.718;2022-11-25T01:54:02;101419.91;;;15.58;100.00
51460;BME280;37534;39.772;2.718;2022-11-25T01:56:32;101424.72;;;15.44;100.00
51460;BME280;37534;39.772;2.718;2022-11-25T01:59:00;101432.84;;;15.34;100.00
51460;BME280;37534;39.772;2.718;2022-11-25T02:01:26;101428.44;;;15.36;100.00
51460;BME280;37534;39.772;2.718;2022-11-25T02:03:53;101438.34;;;15.50;100.00
51460;BME280;37534;39.772;2.718;2022-11-25T02:06:28;101442.34;;;15.35;100.00
51460;BME280;37534;39.772;2.718;2022-11-25T02:09:06;101424.09;;;15.62;100.00
51460;BME280;37534;39.772;2.718;2022-11-25T02:11:34;101444.59;;;15.70;100.00
51460;BME280;37534;39.772;2.718;2022-11-25T02:14:02;101443.09;;;15.64;100.00
51460;BME280;37534;39.772;2.718;2022-11-25T02:16:28;101431.56;;;15.71;100.00
51460;BME280;37534;39.772;2.718;2022-11-25T02:18:53;101440.44;;;15.66;100.00
51460;BME280;37534;39.772;2.718;2022-11-25T02:21:25;101449.03;;;15.68;100.00
51460;BME280;37534;39.772;2.718;2022-11-25T02:23:57;101455.84;;;15.70;100.00
51460;BME280;37534;39.772;2.718;2022-11-25T02:26:24;101448.72;;;15.52;100.00
51460;BME280;37534;39.772;2.718;2022-11-25T02:28:50;101450.19;;;15.59;100.00
51460;BME280;37534;39.772;2.718;2022-11-25T02:31:22;101454.00;;;15.49;100.00
51460;BME280;37534;39.772;2.718;2022-11-25T02:33:48;101454.25;;;15.43;100.00
51460;BME280;37534;39.772;2.718;2022-11-25T02:36:20;101469.88;;;15.41;100.00
51460;BME280;37534;39.772;2.718;2022-11-25T02:38:54;101454.00;;;15.49;100.00
51460;BME280;37534;39.772;2.718;2022-11-25T02:41:32;101463.06;;;15.38;100.00
51460;BME280;37534;39.772;2.718;2022-11-25T02:43:59;101466.16;;;15.23;100.00
51460;BME280;37534;39.772;2.718;2022-11-25T02:46:26;101460.03;;;15.24;100.00
51460;BME280;37534;39.772;2.718;2022-11-25T02:48:54;101473.69;;;15.31;100.00
51460;BME280;37534;39.772;2.718;2022-11-25T02:51:22;101462.94;;;15.42;100.00
51460;BME280;37534;39.772;2.718;2022-11-25T02:53:49;101462.31;;;15.60;100.00
51460;BME280;37534;39.772;2.718;2022-11-25T02:56:16;101452.34;;;15.48;100.00
51460;BME280;37534;39.772;2.718;2022-11-25T02:58:41;101453.06;;;15.26;100.00
51460;BME280;37534;39.772;2.718;2022-11-25T03:01:08;101466.31;;;15.18;100.00
51460;BME280;37534;39.772;2.718;2022-11-25T03:03:34;101465.47;;;15.18;100.00
51460;BME280;37534;39.772;2.718;2022-11-25T03:06:00;101463.88;;;15.14;100.00
51460;BME280;37534;39.772;2.718;2022-11-25T03:08:26;101470.56;;;15.21;100.00
51460;BME280;37534;39.772;2.718;2022-11-25T03:10:51;101469.97;;;15.13;100.00
51460;BME280;37534;39.772;2.718;2022-11-25T03:13:17;101470.63;;;15.19;100.00
51460;BME280;37534;39.772;2.718;2022-11-25T03:15:43;101463.00;;;15.13;100.00
51460;BME280;37534;39.772;2.718;2022-11-25T03:18:08;101454.03;;;14.97;100.00
51460;BME280;37534;39.772;2.718;2022-11-25T03:20:34;101463.47;;;14.99;100.00
51460;BME280;37534;39.772;2.718;2022-11-25T03:23:01;101463.66;;;14.93;100.00
51460;BME280;37534;39.772;2.718;2022-11-25T03:25:26;101464.22;;;15.03;100.00
51460;BME280;37534;39.772;2.718;2022-11-25T03:27:52;101455.19;;;15.40;100.00
51460;BME280;37534;39.772;2.718;2022-11-25T03:30:20;101455.28;;;15.62;100.00
51460;BME280;37534;39.772;2.718;2022-11-25T03:32:46;101455.63;;;15.53;100.00
51460;BME280;37534;39.772;2.718;2022-11-25T03:35:12;101452.53;;;15.42;100.00
51460;BME280;37534;39.772;2.718;2022-11-25T03:37:38;101452.84;;;15.32;100.00
51460;BME280;37534;39.772;2.718;2022-11-25T03:40:04;101462.50;;;15.29;100.00
51460;BME280;37534;39.772;2.718;2022-11-25T03:42:32;101465.16;;;15.27;100.00
51460;BME280;37534;39.772;2.718;2022-11-25T03:44:57;101467.19;;;15.19;100.00
51460;BME280;37534;39.772;2.718;2022-11-25T03:47:23;101448.06;;;15.20;100.00
51460;BME280;37534;39.772;2.718;2022-11-25T03:49:49;101452.91;;;15.04;100.00
51460;BME280;37534;39.772;2.718;2022-11-25T03:52:14;101449.84;;;14.93;100.00
51460;BME280;37534;39.772;2.718;2022-11-25T03:54:40;101458.69;;;14.87;100.00
51460;BME280;37534;39.772;2.718;2022-11-25T03:57:05;101453.22;;;14.95;100.00
51460;BME280;37534;39.772;2.718;2022-11-25T03:59:31;101450.38;;;15.28;100.00
51460;BME280;37534;39.772;2.718;2022-11-25T04:01:56;101452.66;;;15.38;100.00
51460;BME280;37534;39.772;2.718;2022-11-25T04:04:23;101456.41;;;15.30;100.00
51460;BME280;37534;39.772;2.718;2022-11-25T04:06:48;101456.88;;;15.16;100.00
51460;BME280;37534;39.772;2.718;2022-11-25T04:09:14;101463.00;;;15.13;100.00
51460;BME280;37534;39.772;2.718;2022-11-25T04:11:39;101455.78;;;14.96;100.00
51460;BME280;37534;39.772;2.718;2022-11-25T04:14:23;101462.88;;;14.91;100.00
51460;BME280;37534;39.772;2.718;2022-11-25T04:16:49;101450.13;;;14.83;100.00
51460;BME280;37534;39.772;2.718;2022-11-25T04:19:14;101436.66;;;14.97;100.00
51460;BME280;37534;39.772;2.718;2022-11-25T04:21:40;101450.66;;;14.93;100.00
51460;BME280;37534;39.772;2.718;2022-11-25T04:24:06;101448.47;;;15.08;100.00
51460;BME280;37534;39.772;2.718;2022-11-25T04:26:32;101452.03;;;15.05;100.00
51460;BME280;37534;39.772;2.718;2022-11-25T04:28:57;101453.75;;;15.05;100.00
51460;BME280;37534;39.772;2.718;2022-11-25T04:31:23;101437.66;;;15.20;100.00
51460;BME280;37534;39.772;2.718;2022-11-25T04:33:48;101441.38;;;15.13;100.00
51460;BME280;37534;39.772;2.718;2022-11-25T04:36:14;101446.88;;;15.04;100.00
51460;BME280;37534;39.772;2.718;2022-11-25T04:38:39;101431.78;;;14.88;100.00
51460;BME280;37534;39.772;2.718;2022-11-25T04:41:05;101447.59;;;14.82;100.00
51460;BME280;37534;39.772;2.718;2022-11-25T04:43:30;101444.22;;;15.05;100.00
51460;BME280;37534;39.772;2.718;2022-11-25T04:45:56;101440.53;;;15.12;100.00
51460;BME280;37534;39.772;2.718;2022-11-25T04:48:22;101451.03;;;15.34;100.00
51460;BME280;37534;39.772;2.718;2022-11-25T04:50:48;101446.81;;;15.57;100.00
51460;BME280;37534;39.772;2.718;2022-11-25T04:53:13;101442.03;;;15.45;100.00
51460;BME280;37534;39.772;2.718;2022-11-25T04:55:39;101443.13;;;15.37;100.00
51460;BME280;37534;39.772;2.718;2022-11-25T04:58:05;101444.34;;;15.27;100.00
51460;BME280;37534;39.772;2.718;2022-11-25T05:00:30;101441.28;;;15.16;100.00
51460;BME280;37534;39.772;2.718;2022-11-25T05:02:56;101435.84;;;15.22;100.00
51460;BME280;37534;39.772;2.718;2022-11-25T05:05:21;101443.19;;;15.36;100.00
51460;BME280;37534;39.772;2.718;2022-11-25T05:07:47;101438.31;;;15.27;100.00
51460;BME280;37534;39.772;2.718;2022-11-25T05:10:12;101435.66;;;15.28;100.00
51460;BME280;37534;39.772;2.718;2022-11-25T05:12:38;101442.25;;;15.38;100.00
51460;BME280;37534;39.772;2.718;2022-11-25T05:15:05;101448.66;;;15.28;100.00
51460;BME280;37534;39.772;2.718;2022-11-25T05:17:31;101455.06;;;15.18;100.00
51460;BME280;37534;39.772;2.718;2022-11-25T05:19:57;101452.25;;;15.24;100.00
51460;BME280;37534;39.772;2.718;2022-11-25T05:22:25;101456.13;;;15.12;100.00
51460;BME280;37534;39.772;2.718;2022-11-25T05:24:51;101455.69;;;14.99;100.00
51460;BME280;37534;39.772;2.718;2022-11-25T05:27:17;101458.16;;;15.02;100.00
51460;BME280;37534;39.772;2.718;2022-11-25T05:29:42;101457.47;;;14.97;100.00
51460;BME280;37534;39.772;2.718;2022-11-25T05:32:08;101461.16;;;14.90;100.00
51460;BME280;37534;39.772;2.718;2022-11-25T05:34:34;101467.41;;;14.85;100.00
51460;BME280;37534;39.772;2.718;2022-11-25T05:37:01;101467.66;;;14.77;100.00
51460;BME280;37534;39.772;2.718;2022-11-25T05:39:26;101476.31;;;14.76;100.00
51460;BME280;37534;39.772;2.718;2022-11-25T05:41:52;101470.44;;;14.71;100.00
51460;BME280;37534;39.772;2.718;2022-11-25T05:44:18;101473.56;;;14.82;100.00
51460;BME280;37534;39.772;2.718;2022-11-25T05:46:44;101477.56;;;14.92;100.00
51460;BME280;37534;39.772;2.718;2022-11-25T05:49:11;101479.88;;;15.01;100.00
51460;BME280;37534;39.772;2.718;2022-11-25T05:51:37;101481.84;;;14.93;100.00
51460;BME280;37534;39.772;2.718;2022-11-25T05:54:03;101477.66;;;14.89;100.00
51460;BME280;37534;39.772;2.718;2022-11-25T05:56:28;101477.31;;;15.00;100.00
51460;BME280;37534;39.772;2.718;2022-11-25T05:58:54;101481.75;;;14.96;100.00
51460;BME280;37534;39.772;2.718;2022-11-25T06:01:20;101476.66;;;14.93;100.00
51460;BME280;37534;39.772;2.718;2022-11-25T06:03:46;101488.16;;;15.13;100.00
51460;BME280;37534;39.772;2.718;2022-11-25T06:06:12;101483.16;;;15.07;100.00
51460;BME280;37534;39.772;2.718;2022-11-25T06:08:38;101496.66;;;15.18;100.00
51460;BME280;37534;39.772;2.718;2022-11-25T06:11:09;101494.06;;;15.18;100.00
51460;BME280;37534;39.772;2.718;2022-11-25T06:13:36;101493.97;;;15.21;100.00
51460;BME280;37534;39.772;2.718;2022-11-25T06:16:09;101492.88;;;15.53;100.00
51460;BME280;37534;39.772;2.718;2022-11-25T06:18:36;101481.38;;;15.86;100.00
51460;BME280;37534;39.772;2.718;2022-11-25T06:21:03;101477.81;;;15.88;100.00
51460;BME280;37534;39.772;2.718;2022-11-25T06:23:30;101474.06;;;15.70;100.00
51460;BME280;37534;39.772;2.718;2022-11-25T06:26:18;101479.50;;;15.64;100.00
51460;BME280;37534;39.772;2.718;2022-11-25T06:28:44;101478.06;;;15.55;100.00
51460;BME280;37534;39.772;2.718;2022-11-25T06:31:13;101482.53;;;15.52;100.00
51460;BME280;37534;39.772;2.718;2022-11-25T06:33:39;101484.75;;;15.63;100.00
51460;BME280;37534;39.772;2.718;2022-11-25T06:36:06;101488.41;;;15.57;100.00
51460;BME280;37534;39.772;2.718;2022-11-25T06:38:32;101492.81;;;15.55;100.00
51460;BME280;37534;39.772;2.718;2022-11-25T06:41:04;101488.50;;;15.54;100.00
51460;BME280;37534;39.772;2.718;2022-11-25T06:43:31;101492.13;;;15.50;100.00
51460;BME280;37534;39.772;2.718;2022-11-25T06:46:14;101494.03;;;15.45;100.00
51460;BME280;37534;39.772;2.718;2022-11-25T06:48:40;101491.44;;;15.45;100.00
51460;BME280;37534;39.772;2.718;2022-11-25T06:51:09;101478.66;;;15.64;100.00
51460;BME280;37534;39.772;2.718;2022-11-25T06:53:36;101477.22;;;15.55;100.00
51460;BME280;37534;39.772;2.718;2022-11-25T06:58:31;101495.75;;;15.46;100.00
51460;BME280;37534;39.772;2.718;2022-11-25T07:01:22;101501.88;;;15.43;100.00
51460;BME280;37534;39.772;2.718;2022-11-25T07:03:50;101509.22;;;15.57;100.00
51460;BME280;37534;39.772;2.718;2022-11-25T07:06:17;101511.13;;;15.52;100.00
51460;BME280;37534;39.772;2.718;2022-11-25T07:08:43;101505.94;;;15.52;100.00
51460;BME280;37534;39.772;2.718;2022-11-25T07:11:12;101519.31;;;15.66;100.00
51460;BME280;37534;39.772;2.718;2022-11-25T07:13:40;101512.41;;;15.65;100.00
51460;BME280;37534;39.772;2.718;2022-11-25T07:16:06;101513.22;;;15.67;100.00
51460;BME280;37534;39.772;2.718;2022-11-25T07:18:34;101521.16;;;15.63;100.00
51460;BME280;37534;39.772;2.718;2022-11-25T07:21:12;101518.50;;;15.64;100.00
51460;BME280;37534;39.772;2.718;2022-11-25T07:23:39;101514.56;;;15.79;100.00
51460;BME280;37534;39.772;2.718;2022-11-25T07:26:12;101507.75;;;15.75;100.00
51460;BME280;37534;39.772;2.718;2022-11-25T07:28:39;101511.34;;;15.71;100.00
51460;BME280;37534;39.772;2.718;2022-11-25T07:33:30;101519.13;;;15.72;100.00
51460;BME280;37534;39.772;2.718;2022-11-25T07:36:00;101513.81;;;15.74;100.00
51460;BME280;37534;39.772;2.718;2022-11-25T07:38:26;101525.69;;;15.83;100.00
51460;BME280;37534;39.772;2.718;2022-11-25T07:40:52;101524.03;;;15.82;100.00
51460;BME280;37534;39.772;2.718;2022-11-25T07:43:18;101533.25;;;15.90;100.00
51460;BME280;37534;39.772;2.718;2022-11-25T07:45:43;101524.91;;;15.81;100.00
51460;BME280;37534;39.772;2.718;2022-11-25T07:48:08;101536.09;;;15.83;100.00
51460;BME280;37534;39.772;2.718;2022-11-25T07:50:34;101549.75;;;15.89;100.00
51460;BME280;37534;39.772;2.718;2022-11-25T07:52:59;101553.22;;;15.90;100.00
51460;BME280;37534;39.772;2.718;2022-11-25T07:55:25;101547.56;;;16.02;100.00
51460;BME280;37534;39.772;2.718;2022-11-25T07:57:51;101544.72;;;16.10;100.00
51460;BME280;37534;39.772;2.718;2022-11-25T08:00:16;101553.22;;;16.15;100.00
51460;BME280;37534;39.772;2.718;2022-11-25T08:02:42;101558.09;;;16.24;100.00
51460;BME280;37534;39.772;2.718;2022-11-25T08:05:08;101546.69;;;16.27;100.00
51460;BME280;37534;39.772;2.718;2022-11-25T08:07:33;101551.41;;;16.17;100.00
51460;BME280;37534;39.772;2.718;2022-11-25T08:09:59;101538.63;;;16.09;100.00
51460;BME280;37534;39.772;2.718;2022-11-25T08:12:24;101550.06;;;16.05;100.00
51460;BME280;37534;39.772;2.718;2022-11-25T08:14:50;101546.53;;;16.08;100.00
51460;BME280;37534;39.772;2.718;2022-11-25T08:17:15;101543.75;;;16.12;100.00
51460;BME280;37534;39.772;2.718;2022-11-25T08:19:41;101532.78;;;16.28;100.00
51460;BME280;37534;39.772;2.718;2022-11-25T08:22:06;101534.94;;;16.40;100.00
51460;BME280;37534;39.772;2.718;2022-11-25T08:24:32;101531.22;;;16.69;100.00
51460;BME280;37534;39.772;2.718;2022-11-25T08:26:57;101525.03;;;16.96;100.00
51460;BME280;37534;39.772;2.718;2022-11-25T08:29:25;101541.66;;;17.36;100.00
51460;BME280;37534;39.772;2.718;2022-11-25T08:31:51;101537.81;;;17.65;100.00
51460;BME280;37534;39.772;2.718;2022-11-25T08:34:19;101529.34;;;17.80;100.00
51460;BME280;37534;39.772;2.718;2022-11-25T08:36:45;101533.44;;;18.07;100.00
51460;BME280;37534;39.772;2.718;2022-11-25T08:39:11;101548.19;;;18.28;100.00
51460;BME280;37534;39.772;2.718;2022-11-25T08:41:37;101555.16;;;18.47;100.00
51460;BME280;37534;39.772;2.718;2022-11-25T08:44:05;101564.69;;;18.67;100.00
51460;BME280;37534;39.772;2.718;2022-11-25T08:46:33;101569.28;;;18.80;100.00
51460;BME280;37534;39.772;2.718;2022-11-25T08:49:01;101567.59;;;18.98;100.00
51460;BME280;37534;39.772;2.718;2022-11-25T08:51:29;101564.19;;;19.15;100.00
51460;BME280;37534;39.772;2.718;2022-11-25T08:53:55;101562.03;;;19.24;100.00
51460;BME280;37534;39.772;2.718;2022-11-25T08:56:22;101561.31;;;19.20;100.00
51460;BME280;37534;39.772;2.718;2022-11-25T08:58:48;101569.56;;;19.12;100.00
51460;BME280;37534;39.772;2.718;2022-11-25T09:01:14;101562.84;;;19.07;100.00
51460;BME280;37534;39.772;2.718;2022-11-25T09:03:43;101563.63;;;19.09;100.00
51460;BME280;37534;39.772;2.718;2022-11-25T09:06:09;101568.19;;;19.23;100.00
51460;BME280;37534;39.772;2.718;2022-11-25T09:08:36;101574.44;;;19.37;100.00
51460;BME280;37534;39.772;2.718;2022-11-25T09:11:02;101570.31;;;19.51;100.00
51460;BME280;37534;39.772;2.718;2022-11-25T09:13:28;101585.28;;;19.65;100.00
51460;BME280;37534;39.772;2.718;2022-11-25T09:15:54;101580.47;;;19.74;100.00
51460;BME280;37534;39.772;2.718;2022-11-25T09:18:20;101571.16;;;19.86;100.00
51460;BME280;37534;39.772;2.718;2022-11-25T09:20:50;101573.72;;;20.04;100.00
51460;BME280;37534;39.772;2.718;2022-11-25T09:23:16;101578.66;;;20.10;100.00
51460;BME280;37534;39.772;2.718;2022-11-25T09:25:49;101578.81;;;20.07;100.00
51460;BME280;37534;39.772;2.718;2022-11-25T09:28:15;101591.28;;;20.19;100.00
51460;BME280;37534;39.772;2.718;2022-11-25T09:30:41;101584.13;;;20.39;100.00
51460;BME280;37534;39.772;2.718;2022-11-25T09:33:07;101583.59;;;20.65;100.00
51460;BME280;37534;39.772;2.718;2022-11-25T09:35:33;101586.38;;;20.94;100.00
51460;BME280;37534;39.772;2.718;2022-11-25T09:37:58;101569.66;;;20.97;100.00
51460;BME280;37534;39.772;2.718;2022-11-25T09:40:34;101585.03;;;21.03;100.00
51460;BME280;37534;39.772;2.718;2022-11-25T09:52:06;101614.66;;;22.55;100.00
51460;BME280;37534;39.772;2.718;2022-11-25T09:55:06;101625.06;;;22.71;100.00
51460;BME280;37534;39.772;2.718;2022-11-25T10:00:17;101638.50;;;22.66;100.00
51460;BME280;37534;39.772;2.718;2022-11-25T10:05:47;101631.84;;;22.46;100.00
51460;BME280;37534;39.772;2.718;2022-11-25T10:08:20;101638.41;;;22.25;100.00
51460;BME280;37534;39.772;2.718;2022-11-25T10:10:52;101641.50;;;21.87;100.00
51460;BME280;37534;39.772;2.718;2022-11-25T10:16:06;101646.56;;;21.13;100.00
51460;BME280;37534;39.772;2.718;2022-11-25T10:18:44;101652.28;;;20.72;100.00
51460;BME280;37534;39.772;2.718;2022-11-25T10:21:16;101650.44;;;20.23;100.00
51460;BME280;37534;39.772;2.718;2022-11-25T10:23:41;101646.50;;;19.99;100.00
51460;BME280;37534;39.772;2.718;2022-11-25T10:26:19;101652.78;;;19.77;100.00
51460;BME280;37534;39.772;2.718;2022-11-25T10:29:05;101650.50;;;19.69;100.00
51460;BME280;37534;39.772;2.718;2022-11-25T10:31:42;101652.91;;;19.56;100.00
51460;BME280;37534;39.772;2.718;2022-11-25T10:34:26;101650.94;;;19.43;100.00
51460;BME280;37534;39.772;2.718;2022-11-25T10:36:53;101648.97;;;19.29;100.00
51460;BME280;37534;39.772;2.718;2022-11-25T10:39:24;101629.34;;;19.20;100.00
51460;BME280;37534;39.772;2.718;2022-11-25T10:41:58;101632.47;;;19.09;100.00
51460;BME280;37534;39.772;2.718;2022-11-25T10:44:33;101627.81;;;18.97;100.00
51460;BME280;37534;39.772;2.718;2022-11-25T10:52:10;101643.72;;;18.92;100.00
51460;BME280;37534;39.772;2.718;2022-11-25T10:54:36;101625.34;;;18.94;100.00
51460;BME280;37534;39.772;2.718;2022-11-25T10:57:04;101629.25;;;18.85;100.00
51460;BME280;37534;39.772;2.718;2022-11-25T10:59:40;101637.25;;;18.80;100.00
51460;BME280;37534;39.772;2.718;2022-11-25T11:02:27;101639.72;;;18.85;100.00
51460;BME280;37534;39.772;2.718;2022-11-25T11:07:41;101639.41;;;18.91;100.00
51460;BME280;37534;39.772;2.718;2022-11-25T11:13:00;101647.00;;;19.15;100.00
51460;BME280;37534;39.772;2.718;2022-11-25T11:17:54;101642.31;;;19.41;100.00
51460;BME280;37534;39.772;2.718;2022-11-25T11:20:23;101641.81;;;19.51;100.00
51460;BME280;37534;39.772;2.718;2022-11-25T11:23:04;101628.81;;;19.67;100.00
51460;BME280;37534;39.772;2.718;2022-11-25T11:25:35;101627.97;;;20.02;100.00
51460;BME280;37534;39.772;2.718;2022-11-25T11:28:03;101618.06;;;20.42;100.00
51460;BME280;37534;39.772;2.718;2022-11-25T11:31:18;101616.50;;;20.87;97.45
51460;BME280;37534;39.772;2.718;2022-11-25T11:38:56;101620.56;;;20.93;93.76
51460;BME280;37534;39.772;2.718;2022-11-25T11:41:47;101623.78;;;20.82;94.78
51460;BME280;37534;39.772;2.718;2022-11-25T11:44:31;101621.09;;;20.99;92.46
51460;BME280;37534;39.772;2.718;2022-11-25T11:49:53;101625.09;;;21.83;89.34
51460;BME280;37534;39.772;2.718;2022-11-25T11:55:35;101629.47;;;23.66;77.27
51460;BME280;37534;39.772;2.718;2022-11-25T11:58:24;101632.28;;;24.29;71.95
51460;BME280;37534;39.772;2.718;2022-11-25T12:01:43;101620.09;;;25.50;66.24
51460;BME280;37534;39.772;2.718;2022-11-25T12:06:32;101620.72;;;26.80;59.63
51460;BME280;37534;39.772;2.718;2022-11-25T12:09:07;101615.91;;;27.49;55.29
51460;BME280;37534;39.772;2.718;2022-11-25T12:11:39;101622.56;;;28.88;49.81
51460;BME280;37534;39.772;2.718;2022-11-25T12:17:06;101599.34;;;32.72;39.74
51460;BME280;37534;39.772;2.718;2022-11-25T12:20:02;101606.06;;;32.93;37.82
51460;BME280;37534;39.772;2.718;2022-11-25T12:22:32;101598.19;;;33.65;36.51
51460;BME280;37534;39.772;2.718;2022-11-25T12:25:06;101588.03;;;34.17;35.77
51460;BME280;37534;39.772;2.718;2022-11-25T12:27:40;101600.94;;;34.05;34.20
51460;BME280;37534;39.772;2.718;2022-11-25T12:30:14;101611.94;;;33.13;35.61
51460;BME280;37534;39.772;2.718;2022-11-25T12:33:17;101615.03;;;32.59;36.33
51460;BME280;37534;39.772;2.718;2022-11-25T12:38:38;101609.97;;;30.99;40.73
51460;BME280;37534;39.772;2.718;2022-11-25T12:41:12;101606.47;;;31.78;38.86
51460;BME280;37534;39.772;2.718;2022-11-25T12:43:48;101613.53;;;32.22;38.07
51460;BME280;37534;39.772;2.718;2022-11-25T12:48:52;101608.41;;;30.78;41.24
51460;BME280;37534;39.772;2.718;2022-11-25T13:00:12;101617.47;;;34.88;33.42
51460;BME280;37534;39.772;2.718;2022-11-25T13:08:32;101610.56;;;32.84;34.85
51460;BME280;37534;39.772;2.718;2022-11-25T13:13:46;101604.63;;;29.88;40.23
51460;BME280;37534;39.772;2.718;2022-11-25T13:16:14;101607.50;;;28.48;43.72
51460;BME280;37534;39.772;2.718;2022-11-25T13:18:42;101613.25;;;27.49;47.34
51460;BME280;37534;39.772;2.718;2022-11-25T13:21:10;101604.16;;;26.44;51.80
51460;BME280;37534;39.772;2.718;2022-11-25T13:31:57;101627.56;;;24.84;64.27
51460;BME280;37534;39.772;2.718;2022-11-25T13:34:33;101629.50;;;24.43;65.75
51460;BME280;37534;39.772;2.718;2022-11-25T13:37:00;101621.31;;;23.97;68.36
51460;BME280;37534;39.772;2.718;2022-11-25T13:39:31;101628.41;;;23.69;70.99
51460;BME280;37534;39.772;2.718;2022-11-25T13:42:20;101635.16;;;23.73;71.95
51460;BME280;37534;39.772;2.718;2022-11-25T13:44:58;101630.84;;;23.32;74.60
51460;BME280;37534;39.772;2.718;2022-11-25T13:50:04;101621.56;;;23.26;71.05
51460;BME280;37534;39.772;2.718;2022-11-25T13:54:56;101624.78;;;22.61;74.42
51460;BME280;37534;39.772;2.718;2022-11-25T13:57:32;101644.22;;;22.73;73.21
51460;BME280;37534;39.772;2.718;2022-11-25T14:00:06;101649.84;;;22.95;72.18
51460;BME280;37534;39.772;2.718;2022-11-25T14:02:37;101651.63;;;22.81;69.74
51460;BME280;37534;39.772;2.718;2022-11-25T14:10:43;101639.47;;;21.61;73.25
51460;BME280;37534;39.772;2.718;2022-11-25T14:22:02;101648.56;;;20.09;84.41
51460;BME280;37534;39.772;2.718;2022-11-25T14:24:40;101664.75;;;20.33;82.53
51460;BME280;37534;39.772;2.718;2022-11-25T14:27:25;101651.72;;;19.99;80.79
51460;BME280;37534;39.772;2.718;2022-11-25T14:29:55;101649.66;;;20.39;78.67
51460;BME280;37534;39.772;2.718;2022-11-25T14:35:31;101664.38;;;20.75;73.72
51460;BME280;37534;39.772;2.718;2022-11-25T14:38:11;101663.22;;;20.64;75.42
51460;BME280;37534;39.772;2.718;2022-11-25T14:40:44;101666.41;;;20.01;80.13
51460;BME280;37534;39.772;2.718;2022-11-25T14:43:14;101664.56;;;19.86;82.58